createdAt,value
2017-11-22T00:01:26.864Z,5.53
2017-11-22T00:03:53.404Z,6.17
2017-11-22T00:06:19.809Z,5.90
2017-11-22T00:08:46.189Z,6.10
2017-11-22T00:11:12.573Z,5.80
2017-11-22T00:13:38.925Z,6.73
2017-11-22T00:16:05.357Z,5.70
2017-11-22T00:18:31.690Z,6.27
2017-11-22T00:20:58.041Z,6.73
2017-11-22T00:23:24.414Z,7.03
2017-11-22T00:25:50.782Z,7.03
2017-11-22T00:28:17.137Z,7.60
2017-11-22T00:30:43.524Z,8.47
2017-11-22T00:33:09.983Z,8.00
2017-11-22T00:35:36.416Z,8.53
2017-11-22T00:38:02.849Z,9.10
2017-11-22T00:40:29.191Z,9.23
2017-11-22T00:42:55.544Z,9.23
2017-11-22T00:45:21.986Z,8.87
2017-11-22T00:47:48.353Z,9.57
2017-11-22T00:50:14.810Z,9.93
2017-11-22T00:52:41.345Z,9.73
2017-11-22T00:55:07.698Z,10.07
2017-11-22T00:57:34.108Z,10.67
2017-11-22T01:00:00.500Z,11.13
2017-11-22T01:02:26.874Z,10.90
2017-11-22T01:04:53.257Z,11.67
2017-11-22T01:07:19.666Z,10.53
2017-11-22T01:09:46.018Z,10.53
2017-11-22T01:12:12.373Z,10.13
2017-11-22T01:14:38.781Z,10.70
2017-11-22T01:17:05.162Z,11.13
2017-11-22T01:19:31.496Z,11.17
2017-11-22T01:21:57.910Z,11.53
2017-11-22T01:24:24.259Z,11.97
2017-11-22T01:26:50.609Z,11.93
2017-11-22T01:29:16.995Z,12.00
2017-11-22T01:31:43.353Z,12.50
2017-11-22T01:34:09.758Z,11.03
2017-11-22T01:36:36.273Z,11.03
2017-11-22T01:39:02.704Z,10.83
2017-11-22T01:41:29.086Z,10.40
2017-11-22T01:43:55.522Z,12.37
2017-11-22T01:46:21.901Z,10.53
2017-11-22T01:48:48.362Z,11.30
2017-11-22T01:51:14.797Z,12.03
2017-11-22T01:53:41.251Z,11.90
2017-11-22T01:56:07.645Z,12.50
2017-11-22T01:58:34.025Z,12.10
2017-11-22T02:01:00.397Z,11.00
2017-11-22T02:03:26.792Z,10.17
2017-11-22T02:05:53.189Z,9.77
2017-11-22T02:08:19.571Z,10.20
2017-11-22T02:10:45.930Z,9.97
2017-11-22T02:13:12.328Z,11.40
2017-11-22T02:15:38.669Z,10.37
2017-11-22T02:18:05.026Z,10.20
2017-11-22T02:20:31.440Z,10.10
2017-11-22T02:22:57.813Z,9.73
2017-11-22T02:25:24.170Z,9.70
2017-11-22T02:27:50.577Z,10.03
2017-11-22T02:30:16.928Z,10.27
2017-11-22T02:32:43.309Z,10.23
2017-11-22T02:35:09.774Z,9.77
2017-11-22T02:37:36.148Z,13.70
2017-11-22T02:40:02.574Z,12.03
2017-11-22T02:42:29.231Z,10.97
2017-11-22T02:44:55.665Z,9.80
2017-11-22T02:47:22.111Z,10.00
2017-11-22T02:49:48.574Z,8.67
2017-11-22T02:52:15.135Z,9.33
2017-11-22T02:54:41.566Z,8.37
2017-11-22T02:57:08.051Z,8.93
2017-11-22T02:59:34.454Z,8.10
2017-11-22T03:02:00.843Z,8.50
2017-11-22T03:04:27.229Z,8.10
2017-11-22T03:06:53.607Z,7.77
2017-11-22T03:09:20.014Z,7.57
2017-11-22T03:11:46.600Z,7.10
2017-11-22T03:14:12.961Z,7.13
2017-11-22T03:16:39.336Z,6.57
2017-11-22T03:19:05.899Z,7.80
2017-11-22T03:21:32.277Z,7.53
2017-11-22T03:23:58.766Z,6.67
2017-11-22T03:26:25.194Z,7.03
2017-11-22T03:28:51.574Z,7.13
2017-11-22T03:31:18.050Z,6.67
2017-11-22T03:33:44.660Z,6.23
2017-11-22T03:36:11.184Z,6.20
2017-11-22T03:38:37.617Z,7.50
2017-11-22T03:41:04.065Z,6.87
2017-11-22T03:43:30.538Z,6.40
2017-11-22T03:45:56.950Z,6.07
2017-11-22T03:48:23.558Z,7.27
2017-11-22T03:50:56.033Z,6.60
2017-11-22T03:53:28.569Z,6.47
2017-11-22T03:55:55.098Z,6.90
2017-11-22T03:58:21.631Z,6.73
2017-11-22T04:00:48.113Z,7.23
2017-11-22T04:03:16.482Z,7.70
2017-11-22T04:05:48.845Z,8.10
2017-11-22T04:08:17.329Z,8.23
2017-11-22T04:10:43.832Z,9.10
2017-11-22T04:13:10.269Z,9.47
2017-11-22T04:15:36.650Z,8.63
2017-11-22T04:18:03.053Z,9.17
2017-11-22T04:20:30.417Z,8.77
2017-11-22T04:22:56.798Z,13.60
2017-11-22T04:25:23.216Z,11.13
2017-11-22T04:27:49.641Z,12.00
2017-11-22T04:30:16.270Z,12.77
2017-11-22T04:32:42.858Z,16.43
2017-11-22T04:35:09.270Z,23.23
2017-11-22T04:37:35.658Z,17.97
2017-11-22T04:40:02.021Z,19.50
2017-11-22T04:42:28.429Z,22.47
2017-11-22T04:44:54.921Z,30.53
2017-11-22T04:47:21.377Z,33.33
2017-11-22T04:49:47.852Z,31.03
2017-11-22T04:52:14.423Z,30.83
2017-11-22T04:54:40.902Z,26.43
2017-11-22T04:57:07.612Z,24.93
2017-11-22T04:59:34.010Z,24.73
2017-11-22T05:02:00.512Z,24.03
2017-11-22T05:04:27.000Z,22.30
2017-11-22T05:06:53.534Z,20.57
2017-11-22T05:09:20.070Z,21.27
2017-11-22T05:11:46.502Z,19.70
2017-11-22T05:14:12.914Z,18.73
2017-11-22T05:16:39.473Z,22.83
2017-11-22T05:19:05.985Z,21.40
2017-11-22T05:21:32.501Z,21.33
2017-11-22T05:23:59.079Z,18.20
2017-11-22T05:26:25.515Z,15.83
2017-11-22T05:28:51.944Z,15.50
2017-11-22T05:31:18.337Z,18.07
2017-11-22T05:33:44.819Z,21.97
2017-11-22T05:36:11.194Z,28.07
2017-11-22T05:38:37.678Z,23.00
2017-11-22T05:41:04.127Z,20.23
2017-11-22T05:43:30.647Z,22.13
2017-11-22T05:45:57.018Z,24.43
2017-11-22T05:48:23.457Z,19.57
2017-11-22T05:50:49.977Z,20.07
2017-11-22T05:53:16.400Z,19.03
2017-11-22T05:55:42.937Z,19.90
2017-11-22T05:58:09.351Z,20.27
2017-11-22T06:00:41.909Z,20.50
2017-11-22T06:03:08.418Z,28.40
2017-11-22T06:05:35.022Z,51.10
2017-11-22T06:08:01.586Z,67.53
2017-11-22T06:10:28.158Z,24.47
2017-11-22T06:12:54.737Z,21.90
2017-11-22T06:15:21.528Z,27.73
2017-11-22T06:17:48.084Z,30.80
2017-11-22T06:20:14.620Z,28.63
2017-11-22T06:22:41.193Z,30.90
2017-11-22T06:25:07.740Z,48.00
2017-11-22T06:27:34.178Z,59.90
2017-11-22T06:30:00.593Z,51.87
2017-11-22T06:32:27.073Z,42.83
2017-11-22T06:34:53.563Z,46.73
2017-11-22T06:37:19.917Z,45.20
2017-11-22T06:39:46.414Z,39.10
2017-11-22T06:42:12.834Z,34.10
2017-11-22T06:44:39.194Z,33.47
2017-11-22T06:47:05.601Z,33.73
2017-11-22T06:49:32.194Z,33.90
2017-11-22T06:51:58.621Z,31.93
2017-11-22T06:54:25.296Z,31.30
2017-11-22T06:56:51.813Z,32.77
2017-11-22T06:59:18.317Z,29.83
2017-11-22T07:01:50.956Z,30.47
2017-11-22T07:04:17.342Z,31.60
2017-11-22T07:06:43.894Z,29.60
2017-11-22T07:09:10.397Z,32.10
2017-11-22T07:11:37.963Z,31.67
2017-11-22T07:14:04.452Z,31.90
2017-11-22T07:16:36.902Z,32.97
2017-11-22T07:19:03.378Z,38.27
2017-11-22T07:21:30.135Z,39.77
2017-11-22T07:23:56.641Z,49.73
2017-11-22T07:26:23.010Z,45.10
2017-11-22T07:28:49.401Z,44.43
2017-11-22T07:31:15.977Z,44.73
2017-11-22T07:33:42.458Z,53.37
2017-11-22T07:36:14.837Z,58.57
2017-11-22T07:38:41.294Z,62.83
2017-11-22T07:41:07.805Z,58.73
2017-11-22T07:43:34.270Z,68.17
2017-11-22T07:46:00.670Z,59.23
2017-11-22T07:48:27.128Z,56.53
2017-11-22T07:50:58.668Z,51.37
2017-11-22T07:53:25.291Z,62.07
2017-11-22T07:55:51.701Z,66.07
2017-11-22T07:58:21.105Z,60.73
2017-11-22T08:00:47.563Z,49.63
2017-11-22T08:03:14.789Z,28.10
2017-11-22T08:05:41.298Z,25.10
2017-11-22T08:08:07.721Z,26.90
2017-11-22T08:10:34.144Z,13.30
2017-11-22T08:13:00.741Z,16.00
2017-11-22T08:15:27.197Z,12.10
2017-11-22T08:17:53.621Z,11.83
2017-11-22T08:20:20.230Z,12.37
2017-11-22T08:22:46.690Z,13.43
2017-11-22T08:25:13.125Z,16.50
2017-11-22T08:27:39.689Z,12.57
2017-11-22T08:30:06.093Z,12.93
2017-11-22T08:32:32.893Z,10.00
2017-11-22T08:34:59.369Z,12.57
2017-11-22T08:37:25.717Z,8.67
2017-11-22T08:39:52.342Z,7.97
2017-11-22T08:42:18.980Z,8.50
2017-11-22T08:44:45.385Z,7.40
2017-11-22T08:47:11.840Z,9.47
2017-11-22T08:49:38.487Z,8.77
2017-11-22T08:52:05.001Z,7.87
2017-11-22T08:54:37.405Z,7.20
2017-11-22T08:57:09.979Z,8.20
2017-11-22T08:59:36.913Z,7.47
2017-11-22T09:02:03.549Z,6.47
2017-11-22T09:04:30.327Z,7.93
2017-11-22T09:06:56.798Z,8.73
2017-11-22T09:09:23.245Z,8.97
2017-11-22T09:11:49.694Z,9.87
2017-11-22T09:14:16.226Z,10.17
2017-11-22T09:16:42.742Z,9.07
2017-11-22T09:19:11.166Z,7.67
2017-11-22T09:21:37.617Z,7.33
2017-11-22T09:24:04.932Z,9.63
2017-11-22T09:26:31.367Z,4.47
2017-11-22T09:28:57.815Z,5.53
2017-11-22T09:31:30.353Z,5.20
2017-11-22T09:34:04.670Z,4.43
2017-11-22T09:36:31.418Z,5.10
2017-11-22T09:38:57.840Z,4.87
2017-11-22T09:41:24.233Z,6.00
2017-11-22T09:43:50.909Z,5.47
2017-11-22T09:46:17.574Z,4.90
2017-11-22T09:48:43.954Z,6.53
2017-11-22T09:51:10.593Z,6.93
2017-11-22T09:53:37.079Z,7.80
2017-11-22T09:56:03.461Z,6.80
2017-11-22T09:58:30.006Z,5.37
2017-11-22T10:00:56.425Z,6.83
2017-11-22T10:03:23.019Z,6.37
2017-11-22T10:05:49.554Z,7.40
2017-11-22T10:08:16.022Z,7.13
2017-11-22T10:10:42.520Z,7.83
2017-11-22T10:13:08.992Z,7.33
2017-11-22T10:15:35.371Z,8.70
2017-11-22T10:18:05.954Z,6.27
2017-11-22T10:20:32.552Z,4.93
2017-11-22T10:22:59.229Z,5.43
2017-11-22T10:25:25.858Z,5.47
2017-11-22T10:27:58.290Z,5.43
2017-11-22T10:30:29.857Z,5.60
2017-11-22T10:32:56.329Z,5.63
2017-11-22T10:35:22.852Z,5.23
2017-11-22T10:37:49.289Z,4.93
2017-11-22T10:40:15.717Z,5.17
2017-11-22T10:42:42.201Z,5.10
2017-11-22T10:45:08.660Z,5.03
2017-11-22T10:47:35.150Z,5.60
2017-11-22T10:50:02.017Z,5.03
2017-11-22T10:52:28.474Z,3.80
2017-11-22T10:54:54.881Z,4.57
2017-11-22T10:57:21.358Z,4.00
2017-11-22T10:59:47.826Z,3.40
2017-11-22T11:02:14.405Z,4.03
2017-11-22T11:04:40.921Z,3.77
2017-11-22T11:07:07.421Z,4.17
2017-11-22T11:09:33.838Z,4.77
2017-11-22T11:12:00.330Z,4.33
2017-11-22T11:14:26.726Z,4.33
2017-11-22T11:16:53.251Z,4.83
2017-11-22T11:19:19.690Z,5.20
2017-11-22T11:21:46.370Z,5.07
2017-11-22T11:24:12.865Z,6.10
2017-11-22T11:26:39.357Z,5.43
2017-11-22T11:29:05.802Z,4.93
2017-11-22T11:31:32.265Z,5.20
2017-11-22T11:33:58.682Z,5.93
2017-11-22T11:36:31.405Z,5.70
2017-11-22T11:38:57.990Z,4.87
2017-11-22T11:41:24.572Z,5.37
2017-11-22T11:43:51.127Z,4.60
2017-11-22T11:46:17.733Z,4.13
2017-11-22T11:48:44.281Z,5.10
2017-11-22T11:51:10.730Z,3.90
2017-11-22T11:53:37.154Z,3.70
2017-11-22T11:56:03.703Z,3.87
2017-11-22T11:58:30.189Z,4.67
2017-11-22T12:00:57.003Z,6.80
2017-11-22T12:03:23.433Z,10.30
2017-11-22T12:05:50.173Z,8.23
2017-11-22T12:08:16.614Z,7.53
2017-11-22T12:10:43.032Z,5.80
2017-11-22T12:13:09.780Z,7.17
2017-11-22T12:15:36.189Z,6.13
2017-11-22T12:18:02.689Z,7.17
2017-11-22T12:20:29.117Z,5.93
2017-11-22T12:22:56.510Z,6.00
2017-11-22T12:25:22.983Z,5.83
2017-11-22T12:27:49.423Z,4.67
2017-11-22T12:30:15.865Z,4.47
2017-11-22T12:32:42.350Z,4.30
2017-11-22T12:35:09.095Z,5.13
2017-11-22T12:37:35.513Z,5.07
2017-11-22T12:40:01.943Z,4.73
2017-11-22T12:42:32.204Z,5.70
2017-11-22T12:44:58.582Z,6.90
2017-11-22T12:47:25.178Z,6.60
2017-11-22T12:49:58.662Z,6.53
2017-11-22T12:52:25.134Z,7.67
2017-11-22T12:54:51.606Z,6.70
2017-11-22T12:57:18.046Z,6.13
2017-11-22T12:59:44.513Z,6.37
2017-11-22T13:02:10.909Z,5.53
2017-11-22T13:04:37.345Z,6.07
2017-11-22T13:07:03.959Z,5.60
2017-11-22T13:09:30.852Z,5.90
2017-11-22T13:11:58.383Z,6.40
2017-11-22T13:14:25.215Z,6.57
2017-11-22T13:16:51.674Z,6.30
2017-11-22T13:19:18.192Z,6.17
2017-11-22T13:21:44.669Z,7.20
2017-11-22T13:24:11.361Z,6.77
2017-11-22T13:26:37.794Z,6.57
2017-11-22T13:29:04.259Z,6.23
2017-11-22T13:31:30.773Z,6.37
2017-11-22T13:33:57.354Z,7.50
2017-11-22T13:36:24.007Z,7.43
2017-11-22T13:38:50.494Z,7.67
2017-11-22T13:41:16.958Z,8.20
2017-11-22T13:43:43.506Z,8.00
2017-11-22T13:46:12.910Z,8.80
2017-11-22T13:48:39.494Z,9.03
2017-11-22T13:51:06.002Z,9.07
2017-11-22T13:53:32.489Z,6.90
2017-11-22T13:55:59.122Z,8.77
2017-11-22T13:58:25.761Z,8.67
2017-11-22T14:00:52.360Z,9.50
2017-11-22T14:03:18.885Z,9.50
2017-11-22T14:05:45.474Z,11.23
2017-11-22T14:08:11.961Z,12.67
2017-11-22T14:10:38.517Z,13.20
2017-11-22T14:13:05.110Z,13.67
2017-11-22T14:15:31.741Z,15.60
2017-11-22T14:17:58.333Z,18.03
2017-11-22T14:20:25.005Z,18.10
2017-11-22T14:22:51.473Z,19.87
2017-11-22T14:25:18.090Z,18.93
2017-11-22T14:27:44.645Z,20.20
2017-11-22T14:30:11.274Z,25.20
2017-11-22T14:32:37.769Z,30.37
2017-11-22T14:35:04.338Z,34.57
2017-11-22T14:37:30.802Z,34.63
2017-11-22T14:39:57.480Z,35.50
2017-11-22T14:42:24.014Z,39.63
2017-11-22T14:44:50.576Z,38.53
2017-11-22T14:47:17.025Z,40.17
2017-11-22T14:49:43.578Z,46.90
2017-11-22T14:52:10.107Z,47.63
2017-11-22T14:54:36.729Z,53.20
2017-11-22T14:57:03.265Z,58.10
2017-11-22T14:59:29.866Z,51.83
2017-11-22T15:01:56.277Z,51.77
2017-11-22T15:04:22.839Z,53.50
2017-11-22T15:06:49.570Z,57.50
2017-11-22T15:09:16.018Z,53.63
2017-11-22T15:11:42.508Z,34.17
2017-11-22T15:14:08.995Z,57.57
2017-11-22T15:16:35.458Z,52.57
2017-11-22T15:19:02.607Z,51.10
2017-11-22T15:21:29.078Z,54.97
2017-11-22T15:23:55.605Z,90.00
2017-11-22T15:26:22.167Z,84.03
2017-11-22T15:28:48.806Z,91.70
2017-11-22T15:31:15.272Z,110.90
2017-11-22T15:33:43.740Z,73.50
2017-11-22T15:36:10.564Z,103.07
2017-11-22T15:38:39.825Z,135.90
2017-11-22T15:41:06.482Z,131.30
2017-11-22T15:43:32.977Z,129.50
2017-11-22T15:45:59.413Z,121.10
2017-11-22T15:48:26.006Z,124.00
2017-11-22T15:50:52.614Z,119.67
2017-11-22T15:53:19.093Z,64.53
2017-11-22T15:55:45.564Z,109.07
2017-11-22T15:58:11.973Z,88.27
2017-11-22T16:00:38.480Z,88.17
2017-11-22T16:03:04.997Z,110.07
2017-11-22T16:05:31.374Z,108.33
2017-11-22T16:07:57.894Z,110.00
2017-11-22T16:10:24.529Z,109.43
2017-11-22T16:12:50.905Z,109.43
2017-11-22T16:15:17.333Z,101.87
2017-11-22T16:17:43.791Z,95.10
2017-11-22T16:20:10.253Z,94.93
2017-11-22T16:22:36.721Z,104.10
2017-11-22T16:25:03.306Z,100.30
2017-11-22T16:27:30.612Z,83.20
2017-11-22T16:29:57.120Z,103.50
2017-11-22T16:32:23.576Z,83.97
2017-11-22T16:34:49.978Z,109.57
2017-11-22T16:37:16.412Z,59.63
2017-11-22T16:39:43.136Z,88.70
2017-11-22T16:42:09.566Z,123.43
2017-11-22T16:44:36.494Z,130.83
2017-11-22T16:47:03.939Z,83.90
2017-11-22T16:49:30.427Z,135.90
2017-11-22T16:51:56.910Z,144.73
2017-11-22T16:54:23.437Z,158.33
2017-11-22T16:56:49.967Z,161.80
2017-11-22T16:59:16.444Z,144.80
2017-11-22T17:01:42.943Z,165.60
2017-11-22T17:04:09.407Z,167.97
2017-11-22T17:06:36.842Z,116.13
2017-11-22T17:09:03.627Z,167.10
2017-11-22T17:11:30.097Z,161.07
2017-11-22T17:13:56.517Z,76.67
2017-11-22T17:16:23.001Z,152.83
2017-11-22T17:18:49.442Z,116.13
2017-11-22T17:21:15.876Z,126.20
2017-11-22T17:23:42.610Z,180.90
2017-11-22T17:26:09.022Z,194.07
2017-11-22T17:28:35.693Z,188.30
2017-11-22T17:31:02.961Z,188.97
2017-11-22T17:33:29.369Z,184.20
2017-11-22T17:35:55.804Z,181.03
2017-11-22T17:38:22.219Z,186.03
2017-11-22T17:40:48.666Z,185.97
2017-11-22T17:43:15.535Z,198.20
2017-11-22T17:45:41.970Z,200.17
2017-11-22T17:48:08.505Z,210.57
2017-11-22T17:50:35.073Z,208.37
2017-11-22T17:53:01.806Z,215.73
2017-11-22T17:55:28.270Z,219.50
2017-11-22T17:57:54.747Z,219.03
2017-11-22T18:00:21.342Z,214.40
2017-11-22T18:02:47.770Z,213.10
2017-11-22T18:05:14.262Z,194.40
2017-11-22T18:07:40.901Z,196.17
2017-11-22T18:10:07.413Z,187.77
2017-11-22T18:12:33.825Z,186.07
2017-11-22T18:15:00.270Z,170.13
2017-11-22T18:17:26.664Z,154.90
2017-11-22T18:19:53.076Z,132.27
2017-11-22T18:22:19.602Z,123.33
2017-11-22T18:24:47.029Z,108.27
2017-11-22T18:27:13.434Z,94.67
2017-11-22T18:29:39.950Z,87.23
2017-11-22T18:32:06.335Z,78.57
2017-11-22T18:34:32.770Z,77.50
2017-11-22T18:36:59.399Z,71.50
2017-11-22T18:39:25.842Z,70.40
2017-11-22T18:41:52.268Z,63.27
2017-11-22T18:44:18.742Z,65.20
2017-11-22T18:46:45.142Z,56.60
2017-11-22T18:49:12.525Z,55.33
2017-11-22T18:51:39.026Z,53.77
2017-11-22T18:54:05.425Z,52.10
2017-11-22T18:56:31.825Z,55.47
2017-11-22T18:58:58.390Z,60.47
2017-11-22T19:01:25.242Z,51.77
2017-11-22T19:03:51.730Z,53.77
2017-11-22T19:06:18.225Z,51.27
2017-11-22T19:08:44.655Z,51.73
2017-11-22T19:11:11.068Z,48.53
2017-11-22T19:13:37.487Z,48.33
2017-11-22T19:16:03.992Z,46.70
2017-11-22T19:18:30.389Z,45.20
2017-11-22T19:20:57.711Z,45.53
2017-11-22T19:23:24.086Z,44.10
2017-11-22T19:25:50.609Z,44.77
2017-11-22T19:28:17.120Z,43.73
2017-11-22T19:30:43.790Z,43.17
2017-11-22T19:33:10.261Z,43.03
2017-11-22T19:35:36.842Z,43.87
2017-11-22T19:38:03.363Z,42.93
2017-11-22T19:40:29.870Z,43.97
2017-11-22T19:42:58.376Z,48.57
2017-11-22T19:45:26.294Z,46.60
2017-11-22T19:47:53.718Z,50.77
2017-11-22T19:50:20.183Z,52.03
2017-11-22T19:52:47.586Z,56.20
2017-11-22T19:55:14.314Z,56.13
2017-11-22T19:57:40.803Z,57.70
2017-11-22T20:00:07.199Z,57.47
2017-11-22T20:02:33.665Z,57.33
2017-11-22T20:05:00.339Z,65.63
2017-11-22T20:07:38.777Z,67.43
2017-11-22T20:10:05.287Z,65.50
2017-11-22T20:12:31.710Z,70.97
2017-11-22T20:14:58.129Z,68.93
2017-11-22T20:17:24.526Z,69.33
2017-11-22T20:19:50.990Z,58.13
2017-11-22T20:22:17.372Z,65.07
2017-11-22T20:24:44.809Z,64.80
2017-11-22T20:27:11.175Z,61.47
2017-11-22T20:29:37.526Z,62.80
2017-11-22T20:32:05.030Z,62.53
2017-11-22T20:34:31.518Z,58.27
2017-11-22T20:36:57.897Z,59.37
2017-11-22T20:39:24.405Z,57.63
2017-11-22T20:41:54.596Z,61.00
2017-11-22T20:44:20.962Z,62.30
2017-11-22T20:46:47.395Z,61.47
2017-11-22T20:49:13.761Z,61.70
2017-11-22T20:51:40.133Z,61.73
2017-11-22T20:54:06.546Z,59.07
2017-11-22T20:56:32.901Z,62.20
2017-11-22T20:58:59.254Z,64.33
2017-11-22T21:01:25.713Z,63.97
2017-11-22T21:03:52.074Z,61.17
2017-11-22T21:06:18.418Z,64.23
2017-11-22T21:08:44.826Z,64.10
2017-11-22T21:11:11.343Z,66.50
2017-11-22T21:13:38.749Z,69.20
2017-11-22T21:16:05.234Z,72.83
2017-11-22T21:18:31.702Z,69.97
2017-11-22T21:20:58.098Z,69.37
2017-11-22T21:23:24.563Z,72.00
2017-11-22T21:25:51.069Z,68.70
2017-11-22T21:28:17.453Z,71.63
2017-11-22T21:30:43.841Z,71.30
2017-11-22T21:33:10.222Z,69.33
2017-11-22T21:35:36.649Z,64.57
2017-11-22T21:38:03.234Z,60.53
2017-11-22T21:40:29.620Z,58.93
2017-11-22T21:42:56.049Z,58.37
2017-11-22T21:45:22.475Z,53.17
2017-11-22T21:47:48.865Z,48.60
2017-11-22T21:50:15.265Z,49.20
2017-11-22T21:52:41.810Z,45.80
2017-11-22T21:55:08.246Z,46.23
2017-11-22T21:57:34.702Z,50.07
2017-11-22T22:00:01.094Z,49.53
2017-11-22T22:02:27.497Z,52.90
2017-11-22T22:04:53.933Z,51.43
2017-11-22T22:07:20.507Z,48.97
2017-11-22T22:09:46.847Z,44.73
2017-11-22T22:12:13.301Z,41.20
2017-11-22T22:14:39.710Z,41.60
2017-11-22T22:17:06.087Z,40.30
2017-11-22T22:19:32.524Z,42.37
2017-11-22T22:21:59.136Z,44.20
2017-11-22T22:24:25.493Z,47.10
2017-11-22T22:26:51.833Z,49.30
2017-11-22T22:29:18.334Z,48.40
2017-11-22T22:31:44.741Z,48.50
2017-11-22T22:34:11.121Z,44.37
2017-11-22T22:36:37.536Z,42.43
2017-11-22T22:39:04.097Z,37.63
2017-11-22T22:41:30.503Z,37.37
2017-11-22T22:43:56.959Z,34.37
2017-11-22T22:46:23.378Z,32.83
2017-11-22T22:48:49.833Z,30.43
2017-11-22T22:51:16.269Z,29.67
2017-11-22T22:53:42.746Z,30.83
2017-11-22T22:56:09.075Z,29.23
2017-11-22T22:58:35.562Z,29.23
2017-11-22T23:01:01.953Z,27.80
2017-11-22T23:03:28.399Z,28.57
2017-11-22T23:05:54.868Z,26.30
2017-11-22T23:08:21.237Z,25.57
2017-11-22T23:10:47.665Z,25.23
2017-11-22T23:13:14.205Z,25.30
2017-11-22T23:15:40.647Z,23.57
2017-11-22T23:18:06.998Z,24.03
2017-11-22T23:20:33.410Z,25.03
2017-11-22T23:22:59.877Z,24.40
2017-11-22T23:25:26.299Z,23.27
2017-11-22T23:27:52.713Z,23.03
2017-11-22T23:30:19.118Z,22.63
2017-11-22T23:32:45.655Z,20.90
2017-11-22T23:35:12.238Z,20.53
2017-11-22T23:37:38.773Z,20.57
2017-11-22T23:40:05.181Z,18.87
2017-11-22T23:42:31.613Z,17.83
2017-11-22T23:44:58.005Z,18.30
2017-11-22T23:47:24.466Z,18.17
2017-11-22T23:49:51.017Z,17.17
2017-11-22T23:52:17.477Z,17.70
2017-11-22T23:54:43.941Z,17.93
2017-11-22T23:57:10.418Z,19.13
2017-11-22T23:59:36.872Z,20.03
